Time;durP1;ratioP1;P1;durP2;ratioP2;P2;SDS_P1;SDS_P2;PMS_P1;PMS_P2;Temp;Humidity;BMP_temperature;BMP_pressure;BME280_temperature;BME280_humidity;BME280_pressure;Samples;Min_cycle;Max_cycle;Signal;HPM_P1;HPM_P2
2021/07/13 00:00:32;;;;;;;2.40;2.20;;;25.80;99.90;;;;;;5094036;28;20083;-89
2021/07/13 00:02:59;;;;;;;2.50;2.30;;;25.80;99.90;;;;;;5075682;28;20046;-90
2021/07/13 00:05:25;;;;;;;2.42;2.00;;;25.80;99.90;;;;;;5093507;28;20474;-89
2021/07/13 00:07:52;;;;;;;2.40;2.20;;;25.80;99.90;;;;;;5058875;28;20130;-90
2021/07/13 00:10:21;;;;;;;2.22;2.03;;;25.80;99.90;;;;;;5075752;28;20542;-89
2021/07/13 00:12:47;;;;;;;2.28;2.08;;;25.80;99.90;;;;;;5093975;28;20032;-89
2021/07/13 00:15:34;;;;;;;2.08;1.88;;;25.80;99.90;;;;;;5058997;28;20381;-90
2021/07/13 00:18:00;;;;;;;2.25;2.05;;;25.80;99.90;;;;;;5075262;28;20153;-89
2021/07/13 00:20:27;;;;;;;2.65;2.40;;;25.80;99.90;;;;;;5076147;28;20584;-90
2021/07/13 00:22:53;;;;;;;2.38;2.17;;;25.80;99.90;;;;;;5060000;28;20028;-89
2021/07/13 00:25:19;;;;;;;2.13;1.92;;;25.80;99.90;;;;;;5093413;28;20398;-89
2021/07/13 00:27:47;;;;;;;2.88;2.67;;;25.80;99.90;;;;;;5058750;28;20024;-88
2021/07/13 00:30:16;;;;;;;2.20;2.10;;;25.80;99.90;;;;;;5075505;28;20111;-89
2021/07/13 00:32:43;;;;;;;2.00;1.90;;;25.80;99.90;;;;;;5075300;28;20028;-89
2021/07/13 00:35:09;;;;;;;2.42;2.22;;;25.80;99.90;;;;;;5075588;28;20032;-89
2021/07/13 00:37:35;;;;;;;2.13;1.98;;;25.80;99.90;;;;;;5075112;28;20032;-90
2021/07/13 00:40:01;;;;;;;1.73;1.63;;;25.80;99.90;;;;;;5075749;28;20028;-90
2021/07/13 00:42:29;;;;;;;2.10;1.92;;;25.80;99.90;;;;;;5093474;28;20020;-90
2021/07/13 00:44:55;;;;;;;2.38;2.17;;;25.80;99.90;;;;;;5075870;28;20042;-90
2021/07/13 00:47:22;;;;;;;2.47;2.28;;;25.80;99.90;;;;;;5059050;28;20032;-90
2021/07/13 00:49:49;;;;;;;2.22;2.03;;;25.80;99.90;;;;;;5042913;28;20085;-90
2021/07/13 00:52:15;;;;;;;1.90;1.80;;;25.80;99.90;;;;;;5059399;28;20036;-90
2021/07/13 00:54:46;;;;;;;2.17;2.08;;;25.80;99.90;;;;;;5059231;28;20039;-90
2021/07/13 00:57:51;;;;;;;2.13;2.00;;;25.80;99.90;;;;;;5076140;28;20462;-90
2021/07/13 01:00:19;;;;;;;2.40;2.20;;;25.80;99.90;;;;;;5094695;28;20052;-90
2021/07/13 01:02:48;;;;;;;2.10;2.00;;;25.80;99.90;;;;;;5076409;28;20067;-89
2021/07/13 01:05:20;;;;;;;2.17;1.98;;;25.80;99.90;;;;;;5075172;28;20066;-88
2021/07/13 01:08:11;;;;;;;2.10;2.00;;;25.80;99.90;;;;;;5077521;28;20123;-90
2021/07/13 01:11:16;;;;;;;1.88;1.73;;;25.80;99.90;;;;;;5078597;28;20028;-93
2021/07/13 01:14:03;;;;;;;2.50;2.33;;;25.80;99.90;;;;;;5096599;28;20489;-90
2021/07/13 01:16:39;;;;;;;2.00;1.90;;;25.80;99.90;;;;;;5078661;28;20028;-89
2021/07/13 01:19:07;;;;;;;2.13;2.00;;;25.80;99.90;;;;;;5079167;28;20020;-90
2021/07/13 01:21:39;;;;;;;2.00;1.90;;;25.70;99.90;;;;;;5096441;28;20457;-89
2021/07/13 01:24:32;;;;;;;2.08;1.98;;;25.80;99.90;;;;;;5078747;28;20020;-90
2021/07/13 01:27:17;;;;;;;2.50;2.30;;;25.80;99.90;;;;;;5078490;28;20043;-89
2021/07/13 01:29:45;;;;;;;2.08;1.92;;;25.80;99.90;;;;;;5079755;28;20097;-89
2021/07/13 01:32:16;;;;;;;2.35;2.15;;;25.70;99.90;;;;;;5062928;28;20032;-90
2021/07/13 01:34:54;;;;;;;2.38;2.20;;;25.70;99.90;;;;;;5096609;28;20048;-89
2021/07/13 01:37:24;;;;;;;2.40;2.20;;;25.80;99.90;;;;;;5082301;28;20047;-90
2021/07/13 01:39:54;;;;;;;2.53;2.33;;;25.80;99.90;;;;;;5081524;28;20081;-89
2021/07/13 01:42:20;;;;;;;2.60;2.40;;;25.80;99.90;;;;;;5061616;28;20118;-89
2021/07/13 01:44:48;;;;;;;2.60;2.40;;;25.80;99.90;;;;;;5060779;28;20156;-90
2021/07/13 01:47:14;;;;;;;2.22;2.03;;;25.80;99.90;;;;;;5078067;28;20024;-90
2021/07/13 01:49:41;;;;;;;2.35;2.15;;;25.80;99.90;;;;;;5061176;28;20500;-90
2021/07/13 01:52:09;;;;;;;2.40;2.17;;;25.80;99.90;;;;;;5078181;28;20031;-90
2021/07/13 01:54:36;;;;;;;2.20;2.10;;;25.70;99.90;;;;;;5061048;28;20055;-89
2021/07/13 01:57:03;;;;;;;2.50;2.30;;;25.80;99.90;;;;;;5077868;28;20016;-90
2021/07/13 01:59:29;;;;;;;2.67;2.47;;;25.80;99.90;;;;;;5060991;28;20544;-90
2021/07/13 02:01:58;;;;;;;2.80;2.60;;;25.80;99.90;;;;;;5095906;28;20028;-90
2021/07/13 02:04:32;;;;;;;2.78;2.58;;;25.80;99.90;;;;;;5077648;28;20028;-89
2021/07/13 02:07:04;;;;;;;2.55;2.35;;;25.80;99.90;;;;;;5095648;28;20024;-89
2021/07/13 02:09:31;;;;;;;2.78;2.50;;;25.80;99.90;;;;;;5095406;28;20032;-89
2021/07/13 02:11:57;;;;;;;2.90;2.63;;;25.80;99.90;;;;;;5061068;28;20431;-89
2021/07/13 02:14:23;;;;;;;2.63;2.42;;;25.80;99.90;;;;;;5061181;28;20036;-89
2021/07/13 02:16:49;;;;;;;3.13;2.83;;;25.80;99.90;;;;;;5077626;28;20050;-90
2021/07/13 02:19:16;;;;;;;2.90;2.70;;;25.80;99.90;;;;;;5060021;28;20074;-89
2021/07/13 02:21:42;;;;;;;3.10;2.80;;;25.80;99.90;;;;;;5078088;28;20032;-90
2021/07/13 02:24:08;;;;;;;3.17;2.90;;;25.70;99.90;;;;;;5095896;28;20089;-89
2021/07/13 02:26:42;;;;;;;2.83;2.60;;;25.80;99.90;;;;;;5061253;28;20032;-89
2021/07/13 02:29:14;;;;;;;3.38;3.08;;;25.70;99.90;;;;;;5078120;28;20078;-89
2021/07/13 02:31:49;;;;;;;3.03;2.83;;;25.70;99.90;;;;;;5081105;28;20531;-89
2021/07/13 02:34:18;;;;;;;2.83;2.63;;;25.80;99.90;;;;;;5085099;28;20040;-90
2021/07/13 02:36:46;;;;;;;3.05;2.83;;;25.80;99.90;;;;;;5103619;28;20020;-89
2021/07/13 02:39:13;;;;;;;3.50;3.20;;;25.80;99.90;;;;;;5105601;28;20450;-89
2021/07/13 02:41:40;;;;;;;3.25;3.00;;;25.80;99.90;;;;;;5085109;28;20063;-89
2021/07/13 02:44:06;;;;;;;3.28;3.00;;;25.80;99.90;;;;;;5064565;28;20032;-89
2021/07/13 02:46:33;;;;;;;3.55;3.25;;;25.80;99.90;;;;;;5062738;28;20032;-89
2021/07/13 02:49:00;;;;;;;3.33;3.03;;;25.80;99.90;;;;;;5062086;28;20113;-89
2021/07/13 02:51:28;;;;;;;3.50;3.20;;;25.70;99.90;;;;;;5094700;28;20111;-90
2021/07/13 02:53:55;;;;;;;3.40;3.10;;;25.80;99.90;;;;;;5094685;28;20035;-90
2021/07/13 02:56:23;;;;;;;3.60;3.30;;;25.80;99.90;;;;;;5076868;28;20537;-89
2021/07/13 02:58:50;;;;;;;3.65;3.35;;;25.70;99.90;;;;;;5076565;28;20035;-89
2021/07/13 03:01:16;;;;;;;2.88;2.67;;;25.70;99.90;;;;;;5060039;28;20485;-89
2021/07/13 03:03:43;;;;;;;4.13;3.72;;;25.70;99.90;;;;;;5060143;28;20035;-89
2021/07/13 03:06:14;;;;;;;3.50;3.20;;;25.80;99.90;;;;;;5077200;28;20122;-89
2021/07/13 03:08:39;;;;;;;3.47;3.17;;;25.70;99.90;;;;;;5044802;28;20449;-89
2021/07/13 03:11:06;;;;;;;3.80;3.40;;;25.80;99.90;;;;;;5060037;28;20028;-88
2021/07/13 03:13:32;;;;;;;3.55;3.25;;;25.80;99.90;;;;;;5060245;28;20036;-89
2021/07/13 03:15:58;;;;;;;3.47;3.15;;;25.80;99.90;;;;;;5094985;28;20030;-89
2021/07/13 03:18:24;;;;;;;3.75;3.45;;;25.80;99.90;;;;;;5094265;28;20409;-89
2021/07/13 03:20:54;;;;;;;3.42;3.13;;;25.80;99.90;;;;;;5076413;28;20028;-89
2021/07/13 03:23:23;;;;;;;3.45;3.15;;;25.70;99.90;;;;;;5094606;28;20032;-89
2021/07/13 03:25:50;;;;;;;3.50;3.20;;;25.70;99.90;;;;;;5059883;28;20056;-89
2021/07/13 03:28:17;;;;;;;3.10;2.90;;;25.70;99.90;;;;;;5097170;28;20534;-89
2021/07/13 03:30:45;;;;;;;3.85;3.40;;;25.70;99.90;;;;;;5079283;28;20032;-89
2021/07/13 03:33:13;;;;;;;3.88;3.47;;;25.70;99.90;;;;;;5075985;28;20065;-89
2021/07/13 03:35:39;;;;;;;3.30;3.00;;;25.70;99.90;;;;;;5094424;28;20028;-90
2021/07/13 03:38:05;;;;;;;3.92;3.63;;;25.70;99.90;;;;;;5094401;28;20054;-90
2021/07/13 03:40:31;;;;;;;3.70;3.40;;;25.70;99.90;;;;;;5076884;28;20058;-90
2021/07/13 03:42:57;;;;;;;3.92;3.60;;;25.70;99.90;;;;;;5077567;28;20067;-92
2021/07/13 03:45:25;;;;;;;3.88;3.58;;;25.70;99.90;;;;;;5060107;28;20032;-89
2021/07/13 03:47:57;;;;;;;3.90;3.60;;;25.70;99.90;;;;;;5094076;28;20028;-90
2021/07/13 03:50:34;;;;;;;3.97;3.67;;;25.80;99.90;;;;;;5075914;28;20076;-90
2021/07/13 03:53:01;;;;;;;3.97;3.67;;;25.70;99.90;;;;;;5094115;28;20024;-90
2021/07/13 03:55:27;;;;;;;4.13;3.75;;;25.70;99.90;;;;;;5094633;28;20123;-90
2021/07/13 03:57:54;;;;;;;3.67;3.38;;;25.70;99.90;;;;;;5075973;28;20462;-90
2021/07/13 04:00:22;;;;;;;4.38;4.03;;;25.70;99.90;;;;;;5093864;28;20052;-89
2021/07/13 04:02:48;;;;;;;3.70;3.40;;;25.70;99.90;;;;;;5043131;28;20032;-90
2021/07/13 04:05:14;;;;;;;3.65;3.35;;;25.70;99.90;;;;;;5059536;28;20434;-89
2021/07/13 04:07:40;;;;;;;4.22;3.75;;;25.70;99.90;;;;;;5060115;28;20545;-90
2021/07/13 04:10:11;;;;;;;3.50;3.20;;;25.70;99.90;;;;;;5062238;28;20385;-90
2021/07/13 04:12:37;;;;;;;3.95;3.55;;;25.70;99.90;;;;;;5094352;28;20115;-90
2021/07/13 04:15:05;;;;;;;3.42;3.13;;;25.70;99.90;;;;;;5075984;28;20378;-89
2021/07/13 04:17:31;;;;;;;4.00;3.70;;;25.70;99.90;;;;;;5093449;28;20028;-90
2021/07/13 04:19:56;;;;;;;4.10;3.80;;;25.70;99.90;;;;;;5059330;28;20537;-90
2021/07/13 04:22:22;;;;;;;3.65;3.35;;;25.70;99.90;;;;;;5093639;28;20028;-90
2021/07/13 04:24:48;;;;;;;4.15;3.85;;;25.70;99.90;;;;;;5076422;28;20059;-90
2021/07/13 04:27:13;;;;;;;3.80;3.50;;;25.70;99.90;;;;;;5059168;28;20055;-90
2021/07/13 04:29:39;;;;;;;4.22;3.83;;;25.70;99.90;;;;;;5093826;28;20040;-90
2021/07/13 04:32:05;;;;;;;3.70;3.40;;;25.70;99.90;;;;;;5059318;28;20036;-90
2021/07/13 04:34:31;;;;;;;4.15;3.85;;;25.70;99.90;;;;;;5075819;28;20111;-90
2021/07/13 04:36:57;;;;;;;3.70;3.40;;;25.70;99.90;;;;;;5060878;28;20051;-89
2021/07/13 04:39:23;;;;;;;4.47;4.07;;;25.70;99.90;;;;;;5094014;28;20077;-90
2021/07/13 04:41:49;;;;;;;4.53;4.13;;;25.70;99.90;;;;;;5076443;28;20039;-89
2021/07/13 04:44:14;;;;;;;4.00;3.60;;;25.70;99.90;;;;;;5062791;28;20032;-90
2021/07/13 04:46:40;;;;;;;3.78;3.45;;;25.70;99.90;;;;;;5063253;28;20032;-90
2021/07/13 04:49:08;;;;;;;4.55;4.15;;;25.70;99.90;;;;;;5092254;28;20028;-92
2021/07/13 04:51:34;;;;;;;4.15;3.75;;;25.70;99.90;;;;;;5087581;28;20077;-90
2021/07/13 04:54:00;;;;;;;4.03;3.70;;;25.70;99.90;;;;;;5064265;28;20073;-89
2021/07/13 04:56:26;;;;;;;4.50;4.10;;;25.70;99.90;;;;;;5080282;28;20474;-90
2021/07/13 04:58:51;;;;;;;3.78;3.47;;;25.70;99.90;;;;;;5097872;28;20016;-90
2021/07/13 05:01:17;;;;;;;4.25;3.85;;;25.70;99.90;;;;;;5097878;28;20496;-89
2021/07/13 05:03:43;;;;;;;3.90;3.60;;;25.70;99.90;;;;;;5062763;28;20031;-90
2021/07/13 05:06:08;;;;;;;3.90;3.58;;;25.70;99.90;;;;;;5046255;28;20024;-90
2021/07/13 05:08:34;;;;;;;4.15;3.80;;;25.70;99.90;;;;;;5097612;28;20031;-89
2021/07/13 05:11:00;;;;;;;4.00;3.70;;;25.70;99.90;;;;;;5079223;28;20466;-90
2021/07/13 05:13:25;;;;;;;4.15;3.83;;;25.70;99.90;;;;;;5062237;28;20484;-89
2021/07/13 05:15:51;;;;;;;4.22;3.83;;;25.70;99.90;;;;;;5046276;28;20032;-91
2021/07/13 05:18:17;;;;;;;4.75;4.00;;;25.70;99.90;;;;;;5082412;28;20474;-88
2021/07/13 05:20:47;;;;;;;4.32;3.92;;;25.70;99.90;;;;;;5082496;28;20036;-87
2021/07/13 05:23:13;;;;;;;4.30;3.90;;;25.70;99.90;;;;;;5078117;28;20446;-87
2021/07/13 05:25:39;;;;;;;3.95;3.55;;;25.70;99.90;;;;;;5078505;28;20119;-87
2021/07/13 05:28:10;;;;;;;3.83;3.50;;;25.70;99.90;;;;;;5078281;28;20028;-88
2021/07/13 05:30:37;;;;;;;4.45;4.05;;;25.70;99.90;;;;;;5096469;28;20025;-89
2021/07/13 05:33:03;;;;;;;4.43;4.03;;;25.70;99.90;;;;;;5078102;28;20064;-87
2021/07/13 05:35:29;;;;;;;4.80;4.40;;;25.70;99.90;;;;;;5061118;28;20071;-88
2021/07/13 05:37:54;;;;;;;4.53;4.13;;;25.70;99.90;;;;;;5078032;28;20032;-87
2021/07/13 05:40:20;;;;;;;4.65;4.25;;;25.70;99.90;;;;;;5061218;28;20545;-87
2021/07/13 05:42:46;;;;;;;4.82;4.40;;;25.70;99.90;;;;;;5096964;28;20111;-88
2021/07/13 05:45:12;;;;;;;5.45;4.95;;;25.70;99.90;;;;;;5061823;28;20032;-88
2021/07/13 05:47:39;;;;;;;4.28;3.88;;;25.70;99.90;;;;;;5044949;28;20400;-89
2021/07/13 05:50:07;;;;;;;4.80;4.28;;;25.70;99.90;;;;;;5078318;28;20035;-90
2021/07/13 05:52:33;;;;;;;4.32;3.92;;;25.70;99.90;;;;;;5062284;28;20126;-90
2021/07/13 05:54:59;;;;;;;4.50;4.10;;;25.70;99.90;;;;;;5078510;28;20486;-87
2021/07/13 05:57:26;;;;;;;4.72;4.28;;;25.70;99.90;;;;;;5079668;28;20028;-87
2021/07/13 05:59:52;;;;;;;4.30;3.90;;;25.70;99.90;;;;;;5045342;28;20063;-87
2021/07/13 06:02:18;;;;;;;4.25;3.92;;;25.70;99.90;;;;;;5096166;28;20090;-87
2021/07/13 06:04:47;;;;;;;4.45;4.05;;;25.70;99.90;;;;;;5061855;28;20041;-88
2021/07/13 06:07:12;;;;;;;4.10;3.70;;;25.70;99.90;;;;;;5061173;28;20470;-88
2021/07/13 06:09:38;;;;;;;4.45;4.05;;;25.70;99.90;;;;;;5077805;28;20028;-88
2021/07/13 06:12:04;;;;;;;4.53;4.13;;;25.70;99.90;;;;;;5060874;28;20327;-88
2021/07/13 06:14:30;;;;;;;4.90;4.38;;;25.70;99.90;;;;;;5060851;28;20032;-88
2021/07/13 06:16:56;;;;;;;4.25;3.85;;;25.70;99.90;;;;;;5095776;28;20466;-88
2021/07/13 06:19:21;;;;;;;4.30;3.90;;;25.70;99.90;;;;;;5063175;28;20032;-89
2021/07/13 06:21:47;;;;;;;4.30;3.97;;;25.70;99.90;;;;;;5060848;28;20454;-88
2021/07/13 06:24:13;;;;;;;4.50;4.10;;;25.70;99.90;;;;;;5076749;28;20039;-87
2021/07/13 06:26:39;;;;;;;4.20;3.80;;;25.70;99.90;;;;;;5061367;28;20126;-88
2021/07/13 06:29:05;;;;;;;4.35;3.95;;;25.70;99.90;;;;;;5078239;28;20431;-88
2021/07/13 06:31:33;;;;;;;3.85;3.55;;;25.70;99.90;;;;;;5043543;28;20036;-88
2021/07/13 06:33:59;;;;;;;3.85;3.55;;;25.70;99.90;;;;;;5060362;28;20489;-87
2021/07/13 06:36:25;;;;;;;4.38;3.97;;;25.70;99.90;;;;;;5059933;28;20133;-88
2021/07/13 06:38:50;;;;;;;4.10;3.70;;;25.70;99.90;;;;;;5076860;28;20028;-88
2021/07/13 06:41:16;;;;;;;4.28;3.88;;;25.70;99.90;;;;;;5076669;28;20032;-88
2021/07/13 06:43:42;;;;;;;4.38;3.97;;;25.70;99.90;;;;;;5043280;28;20024;-87
2021/07/13 06:46:07;;;;;;;4.00;3.60;;;25.70;99.90;;;;;;5077303;28;20051;-88
2021/07/13 06:48:33;;;;;;;3.97;3.63;;;25.70;99.90;;;;;;5060189;28;20085;-89
2021/07/13 06:50:59;;;;;;;4.55;4.15;;;25.70;99.90;;;;;;5095130;28;20046;-89
2021/07/13 06:53:25;;;;;;;4.05;3.75;;;25.70;99.90;;;;;;5077113;28;20070;-89
2021/07/13 06:55:51;;;;;;;4.47;4.07;;;25.70;99.90;;;;;;5043975;28;20024;-89
2021/07/13 06:58:17;;;;;;;4.32;3.92;;;25.70;99.90;;;;;;5077362;28;20035;-88
2021/07/13 07:00:44;;;;;;;4.00;3.70;;;25.70;99.90;;;;;;5076751;28;20544;-88
2021/07/13 07:03:10;;;;;;;4.00;3.70;;;25.70;99.90;;;;;;5077962;28;20036;-89
2021/07/13 07:05:36;;;;;;;4.68;4.28;;;25.70;99.90;;;;;;5098592;28;20041;-89
2021/07/13 07:08:05;;;;;;;4.32;3.88;;;25.70;99.90;;;;;;5099833;28;20458;-90
2021/07/13 07:10:30;;;;;;;4.65;4.25;;;25.70;99.90;;;;;;5082393;28;20029;-90
2021/07/13 07:12:56;;;;;;;4.90;4.47;;;25.70;99.90;;;;;;5083846;28;20100;-88
2021/07/13 07:15:22;;;;;;;4.70;4.25;;;25.70;99.90;;;;;;5102403;28;20028;-89
2021/07/13 07:17:50;;;;;;;4.72;4.25;;;25.70;99.90;;;;;;5073196;28;20030;-89
2021/07/13 07:20:17;;;;;;;4.60;4.20;;;25.70;99.90;;;;;;5109016;28;20051;-89
2021/07/13 07:22:43;;;;;;;4.28;3.88;;;25.70;99.90;;;;;;5069332;28;20039;-88
2021/07/13 07:25:10;;;;;;;4.65;4.25;;;25.70;99.90;;;;;;5078855;28;20386;-88
2021/07/13 07:27:37;;;;;;;4.40;4.00;;;25.70;99.90;;;;;;5077308;28;20093;-89
2021/07/13 07:30:06;;;;;;;4.18;3.88;;;25.70;99.90;;;;;;5059955;28;20036;-90
2021/07/13 07:32:32;;;;;;;4.35;3.95;;;25.70;99.90;;;;;;5077022;28;20036;-89
2021/07/13 07:34:58;;;;;;;4.40;4.00;;;25.70;99.90;;;;;;5077753;28;20205;-89
2021/07/13 07:37:23;;;;;;;4.47;4.07;;;25.70;99.90;;;;;;5095030;28;20466;-89
2021/07/13 07:39:49;;;;;;;4.35;3.95;;;25.70;99.90;;;;;;5094190;28;20043;-89
2021/07/13 07:42:15;;;;;;;4.72;4.15;;;25.70;99.90;;;;;;5095807;28;20501;-88
2021/07/13 07:44:41;;;;;;;3.90;3.50;;;25.70;99.90;;;;;;5095667;28;20354;-90
2021/07/13 07:47:07;;;;;;;4.40;4.05;;;25.70;99.90;;;;;;5093788;28;20087;-89
2021/07/13 07:49:33;;;;;;;4.18;3.80;;;25.70;99.90;;;;;;5093720;28;20063;-90
2021/07/13 07:51:59;;;;;;;5.22;4.75;;;25.80;99.90;;;;;;5094594;28;20043;-91
2021/07/13 07:54:27;;;;;;;7.03;6.07;;;25.80;99.90;;;;;;5076410;28;20032;-90
2021/07/13 07:56:52;;;;;;;6.93;6.18;;;25.80;99.90;;;;;;5060233;28;20450;-90
2021/07/13 07:59:20;;;;;;;8.52;7.63;;;25.80;99.90;;;;;;5095332;28;20040;-90
2021/07/13 08:01:49;;;;;;;8.77;7.97;;;25.90;99.90;;;;;;5096175;28;20064;-89
2021/07/13 08:04:15;;;;;;;9.82;8.82;;;25.90;99.90;;;;;;5079982;28;20028;-91
2021/07/13 08:06:42;;;;;;;9.48;8.48;;;25.90;99.90;;;;;;5070257;28;20032;-89
2021/07/13 08:09:10;;;;;;;9.30;8.35;;;25.90;99.90;;;;;;5063835;28;20034;-89
2021/07/13 08:11:41;;;;;;;10.75;9.23;;;26.00;99.90;;;;;;5095988;28;20103;-92
2021/07/13 08:14:06;;;;;;;10.98;9.88;;;26.00;99.90;;;;;;5077895;28;20051;-90
2021/07/13 08:16:37;;;;;;;9.20;8.27;;;26.10;99.90;;;;;;5076265;28;20028;-90
2021/07/13 08:19:03;;;;;;;8.85;7.82;;;26.10;99.90;;;;;;5079597;28;20023;-89
2021/07/13 08:21:29;;;;;;;8.32;7.53;;;26.10;99.90;;;;;;5080016;28;20067;-90
2021/07/13 08:23:55;;;;;;;7.35;6.65;;;26.10;99.90;;;;;;5079689;28;20118;-89
2021/07/13 08:26:20;;;;;;;7.32;6.40;;;26.10;99.90;;;;;;5063079;28;20032;-88
2021/07/13 08:28:46;;;;;;;6.57;5.97;;;26.10;99.90;;;;;;5062656;28;20051;-88
2021/07/13 08:31:14;;;;;;;6.15;5.60;;;26.10;99.90;;;;;;5063130;28;20043;-90
2021/07/13 08:33:40;;;;;;;6.13;5.53;;;26.10;99.90;;;;;;5079983;28;20032;-91
2021/07/13 08:36:05;;;;;;;5.45;4.95;;;26.00;99.90;;;;;;5097561;28;20017;-90
2021/07/13 08:38:31;;;;;;;5.00;4.50;;;26.00;99.90;;;;;;5079522;28;20078;-88
2021/07/13 08:40:57;;;;;;;5.63;5.13;;;26.00;99.90;;;;;;5079419;28;20028;-88
2021/07/13 08:43:23;;;;;;;5.55;5.05;;;26.00;99.90;;;;;;5079403;28;20032;-88
2021/07/13 08:45:53;;;;;;;5.20;4.70;;;25.90;99.90;;;;;;5079307;28;20028;-87
2021/07/13 08:48:22;;;;;;;6.43;5.55;;;25.90;99.90;;;;;;5097622;28;20478;-88
2021/07/13 08:50:48;;;;;;;5.85;4.93;;;25.90;99.90;;;;;;5079280;28;20035;-88
2021/07/13 08:53:13;;;;;;;5.80;5.20;;;25.90;99.90;;;;;;5079392;28;20484;-88
2021/07/13 08:55:39;;;;;;;5.20;4.70;;;25.90;99.90;;;;;;5062649;28;20044;-87
2021/07/13 08:58:05;;;;;;;5.55;5.00;;;25.90;99.90;;;;;;5098548;28;20343;-87
2021/07/13 09:00:30;;;;;;;6.13;5.53;;;25.90;99.90;;;;;;5102722;28;20052;-90
2021/07/13 09:03:07;;;;;;;5.63;5.07;;;25.80;99.90;;;;;;5083298;28;20024;-89
2021/07/13 09:05:41;;;;;;;5.13;4.65;;;25.80;99.90;;;;;;5078911;28;20032;-86
2021/07/13 09:08:19;;;;;;;5.63;5.10;;;25.90;99.90;;;;;;5096825;28;20024;-87
2021/07/13 09:11:06;;;;;;;6.15;5.55;;;25.90;99.90;;;;;;5091989;28;20036;-89
2021/07/13 09:13:38;;;;;;;6.70;6.00;;;25.90;99.90;;;;;;5079161;28;20028;-87
2021/07/13 09:16:06;;;;;;;6.32;5.72;;;25.90;99.90;;;;;;5078226;28;20470;-88
2021/07/13 09:18:38;;;;;;;6.60;5.53;;;25.90;99.90;;;;;;5097133;28;20032;-88
2021/07/13 09:21:23;;;;;;;6.22;5.57;;;25.90;99.90;;;;;;5078171;28;20024;-88
2021/07/13 09:24:21;;;;;;;6.00;5.40;;;25.90;99.90;;;;;;5096499;28;20020;-88
2021/07/13 09:26:56;;;;;;;6.07;5.47;;;25.80;99.90;;;;;;5096700;28;20030;-88
2021/07/13 09:29:39;;;;;;;6.00;5.40;;;25.90;99.90;;;;;;5077628;28;20039;-88
2021/07/13 09:32:19;;;;;;;5.80;5.20;;;25.80;99.90;;;;;;5096237;28;20149;-87
2021/07/13 09:34:49;;;;;;;6.43;5.72;;;25.90;99.90;;;;;;5078674;28;20460;-88
2021/07/13 09:37:27;;;;;;;6.25;5.65;;;25.90;99.90;;;;;;5096467;28;20043;-88
2021/07/13 09:40:10;;;;;;;6.25;5.65;;;25.90;99.90;;;;;;5095960;28;20035;-88
2021/07/13 09:42:43;;;;;;;6.38;5.78;;;25.90;99.90;;;;;;5096486;28;20028;-87
2021/07/13 09:45:26;;;;;;;5.85;5.25;;;25.90;99.90;;;;;;5078339;28;20028;-87
2021/07/13 09:47:54;;;;;;;6.13;5.53;;;25.90;99.90;;;;;;5062349;28;20363;-87
2021/07/13 09:50:34;;;;;;;5.97;5.35;;;25.90;99.90;;;;;;5077961;28;20571;-88
2021/07/13 09:53:01;;;;;;;5.15;4.60;;;25.90;99.90;;;;;;5077700;28;20146;-88
2021/07/13 09:55:28;;;;;;;5.10;4.60;;;25.90;99.90;;;;;;5077593;28;20028;-88
2021/07/13 09:58:06;;;;;;;5.95;5.35;;;25.90;99.90;;;;;;5077306;28;20054;-87
2021/07/13 10:00:32;;;;;;;5.30;4.80;;;25.90;99.90;;;;;;5062431;28;20063;-87
2021/07/13 10:02:59;;;;;;;5.20;4.70;;;25.90;99.90;;;;;;5044321;28;20028;-88
2021/07/13 10:05:27;;;;;;;5.45;4.93;;;25.90;99.90;;;;;;5078283;28;20028;-88
2021/07/13 10:07:53;;;;;;;4.88;4.47;;;25.90;99.90;;;;;;5077348;28;20024;-88
2021/07/13 10:10:21;;;;;;;5.72;5.13;;;26.00;99.90;;;;;;5077520;28;20032;-87
2021/07/13 10:12:48;;;;;;;6.28;5.68;;;25.90;99.90;;;;;;5095236;28;20028;-91
2021/07/13 10:15:16;;;;;;;6.07;5.47;;;26.00;99.90;;;;;;5096899;28;20078;-87
2021/07/13 10:17:44;;;;;;;6.57;5.38;;;26.00;99.90;;;;;;5077373;28;20027;-87
2021/07/13 10:20:11;;;;;;;6.50;5.80;;;26.10;99.90;;;;;;5076582;28;20036;-87
2021/07/13 10:22:46;;;;;;;6.10;5.50;;;26.10;99.90;;;;;;5077360;28;20024;-87
2021/07/13 10:25:14;;;;;;;5.45;4.95;;;26.10;99.90;;;;;;5066078;28;20064;-87
2021/07/13 10:27:47;;;;;;;5.60;5.05;;;26.10;99.90;;;;;;5097813;28;20106;-88
2021/07/13 10:30:16;;;;;;;5.20;4.70;;;26.10;99.90;;;;;;5076927;28;20427;-88
2021/07/13 10:32:43;;;;;;;4.82;4.43;;;26.10;99.90;;;;;;5077235;28;20469;-88
2021/07/13 10:35:46;;;;;;;4.88;4.47;;;26.20;99.90;;;;;;5077648;28;20035;-91
2021/07/13 10:38:15;;;;;;;5.28;4.78;;;26.20;99.90;;;;;;5080273;28;20020;-90
2021/07/13 10:40:42;;;;;;;4.45;4.05;;;26.20;99.90;;;;;;5076716;28;20466;-89
2021/07/13 10:43:27;;;;;;;4.85;4.38;;;26.10;99.90;;;;;;5077147;28;20028;-88
2021/07/13 10:46:11;;;;;;;5.32;4.82;;;26.10;99.90;;;;;;5077663;28;20112;-90
2021/07/13 10:48:38;;;;;;;4.75;4.35;;;26.10;99.90;;;;;;5077659;28;20377;-90
2021/07/13 10:51:09;;;;;;;4.85;4.28;;;26.10;99.90;;;;;;5081737;28;20067;-91
2021/07/13 10:53:40;;;;;;;4.72;4.18;;;26.10;99.90;;;;;;5078341;28;20032;-89
2021/07/13 10:56:12;;;;;;;4.72;4.30;;;26.10;99.90;;;;;;5093923;28;20028;-89
2021/07/13 10:58:46;;;;;;;5.22;4.72;;;26.10;99.90;;;;;;5095085;28;20030;-89
2021/07/13 11:01:24;;;;;;;6.00;5.00;;;26.10;99.90;;;;;;5076920;28;20394;-89
2021/07/13 11:03:58;;;;;;;5.70;5.15;;;26.00;99.90;;;;;;5094860;28;20103;-89
2021/07/13 11:06:41;;;;;;;5.07;4.57;;;26.00;99.90;;;;;;5094611;28;20020;-89
2021/07/13 11:09:27;;;;;;;5.70;4.90;;;26.00;99.90;;;;;;5094422;28;20533;-89
2021/07/13 11:12:11;;;;;;;5.60;4.88;;;26.00;99.90;;;;;;5094813;28;20105;-89
2021/07/13 11:14:48;;;;;;;5.78;5.07;;;26.00;99.90;;;;;;5076552;28;20043;-89
2021/07/13 11:17:19;;;;;;;5.05;4.55;;;26.00;99.90;;;;;;5076369;28;20366;-90
2021/07/13 11:19:45;;;;;;;5.60;5.07;;;26.00;99.90;;;;;;5076726;28;20035;-89
2021/07/13 11:22:15;;;;;;;4.75;4.35;;;26.00;99.90;;;;;;5094725;28;20028;-89
2021/07/13 11:24:43;;;;;;;5.05;4.55;;;26.00;99.90;;;;;;5094868;28;20030;-89
2021/07/13 11:27:09;;;;;;;4.97;4.57;;;26.00;99.90;;;;;;5095721;28;20055;-90
2021/07/13 11:29:35;;;;;;;5.00;4.55;;;26.00;99.90;;;;;;5076771;28;20059;-88
2021/07/13 11:32:03;;;;;;;5.40;4.78;;;26.00;99.90;;;;;;5094904;28;20032;-88
2021/07/13 11:34:36;;;;;;;5.18;4.72;;;26.00;99.90;;;;;;5076770;28;20024;-88
2021/07/13 11:37:02;;;;;;;5.43;4.93;;;26.00;99.90;;;;;;5094968;28;20023;-89
2021/07/13 11:39:34;;;;;;;4.60;4.20;;;26.00;99.90;;;;;;5078458;28;20038;-88
2021/07/13 11:42:09;;;;;;;4.90;4.50;;;26.00;99.90;;;;;;5080656;28;20028;-90
2021/07/13 11:44:41;;;;;;;4.75;4.35;;;26.00;99.90;;;;;;5098214;28;20022;-89
2021/07/13 11:47:14;;;;;;;4.57;4.15;;;26.00;99.90;;;;;;5081023;28;20070;-89
2021/07/13 11:49:41;;;;;;;4.85;4.45;;;26.00;99.90;;;;;;5098532;28;20035;-89
2021/07/13 11:52:14;;;;;;;4.40;4.00;;;26.00;99.90;;;;;;5088156;28;20039;-90
2021/07/13 11:54:47;;;;;;;4.15;3.83;;;26.00;99.90;;;;;;5109951;28;20087;-89
2021/07/13 11:57:18;;;;;;;4.75;4.35;;;26.00;99.90;;;;;;5105621;28;20111;-89
2021/07/13 11:59:45;;;;;;;4.80;4.30;;;26.00;99.90;;;;;;5064485;28;20060;-89
2021/07/13 12:02:11;;;;;;;4.68;4.20;;;26.00;99.90;;;;;;5076463;28;20047;-89
2021/07/13 12:04:38;;;;;;;4.18;3.78;;;26.00;99.90;;;;;;5094175;28;20066;-89
2021/07/13 12:07:04;;;;;;;4.63;4.22;;;26.00;99.90;;;;;;5093918;28;20044;-89
2021/07/13 12:09:35;;;;;;;4.50;4.10;;;26.00;99.90;;;;;;5076223;28;20046;-89
2021/07/13 12:12:09;;;;;;;4.30;3.90;;;26.00;99.90;;;;;;5059864;28;20043;-89
2021/07/13 12:14:36;;;;;;;4.72;4.30;;;26.00;99.90;;;;;;5075932;28;20448;-89
2021/07/13 12:17:02;;;;;;;4.10;3.80;;;26.00;99.90;;;;;;5094096;28;20032;-88
2021/07/13 12:19:30;;;;;;;4.63;4.13;;;26.00;99.90;;;;;;5076175;28;20031;-89
2021/07/13 12:21:58;;;;;;;3.63;3.33;;;26.00;99.90;;;;;;5059254;28;20024;-89
2021/07/13 12:24:37;;;;;;;4.15;3.85;;;26.00;99.90;;;;;;5076022;28;20059;-89
2021/07/13 12:27:06;;;;;;;4.40;3.88;;;26.00;99.90;;;;;;5076240;28;20031;-89
2021/07/13 12:29:39;;;;;;;4.10;3.70;;;26.00;99.90;;;;;;5093750;28;20047;-89
2021/07/13 12:32:29;;;;;;;4.40;4.00;;;26.00;99.90;;;;;;5075846;28;20055;-89
2021/07/13 12:34:56;;;;;;;3.78;3.33;;;26.00;99.90;;;;;;5075582;28;20028;-89
2021/07/13 12:37:29;;;;;;;4.20;3.80;;;26.00;99.90;;;;;;5075773;28;20048;-89
2021/07/13 12:40:01;;;;;;;4.13;3.75;;;26.00;99.90;;;;;;5062986;28;20367;-88
2021/07/13 12:42:27;;;;;;;3.90;3.55;;;26.00;99.90;;;;;;5076240;28;20078;-89
2021/07/13 12:44:55;;;;;;;5.68;4.13;;;26.00;99.90;;;;;;5075498;28;20059;-89
2021/07/13 12:47:32;;;;;;;3.58;3.28;;;26.00;99.90;;;;;;5093691;28;20059;-89
2021/07/13 12:50:04;;;;;;;4.10;3.70;;;26.00;99.90;;;;;;5075731;28;20028;-89
2021/07/13 12:52:37;;;;;;;4.28;3.88;;;26.00;99.90;;;;;;5075700;28;20497;-89
2021/07/13 12:55:08;;;;;;;3.63;3.33;;;26.00;99.90;;;;;;5075455;28;20024;-89
2021/07/13 12:57:40;;;;;;;4.18;3.67;;;26.00;99.90;;;;;;5093870;28;20024;-89